createdAt,value
2023-01-17T00:00:37.430Z,5.18
2023-01-17T00:01:40.130Z,5.30
2023-01-17T00:02:41.751Z,5.45
2023-01-17T00:04:01.842Z,5.29
2023-01-17T00:05:24.035Z,5.12
2023-01-17T00:06:44.380Z,5.09
2023-01-17T00:08:04.726Z,5.09
2023-01-17T00:09:25.153Z,5.16
2023-01-17T00:10:30.231Z,5.26
2023-01-17T00:11:31.807Z,5.25
2023-01-17T00:12:35.532Z,5.19
2023-01-17T00:13:37.051Z,5.12
2023-01-17T00:14:39.602Z,5.10
2023-01-17T00:15:41.249Z,5.14
2023-01-17T00:16:43.785Z,5.05
2023-01-17T00:17:46.722Z,5.06
2023-01-17T00:19:03.265Z,4.76
2023-01-17T00:20:26.020Z,4.89
2023-01-17T00:21:45.864Z,5.09
2023-01-17T00:23:06.329Z,5.19
2023-01-17T00:24:27.151Z,5.03
2023-01-17T00:25:49.116Z,5.31
2023-01-17T00:27:05.588Z,4.93
2023-01-17T00:28:10.137Z,4.95
2023-01-17T00:29:11.613Z,4.97
2023-01-17T00:30:13.872Z,5.20
2023-01-17T00:31:16.610Z,5.10
2023-01-17T00:32:18.309Z,5.19
2023-01-17T00:33:21.345Z,5.20
2023-01-17T00:34:22.818Z,5.20
2023-01-17T00:35:27.965Z,5.06
2023-01-17T00:36:29.481Z,5.07
2023-01-17T00:37:30.902Z,5.08
2023-01-17T00:38:34.142Z,4.97
2023-01-17T00:39:35.642Z,5.10
2023-01-17T00:40:39.067Z,4.96
2023-01-17T00:41:40.575Z,5.10
2023-01-17T00:42:42.058Z,4.85
2023-01-17T00:44:01.991Z,4.92
2023-01-17T00:45:25.507Z,5.22
2023-01-17T00:46:45.728Z,5.19
2023-01-17T00:48:06.257Z,5.33
2023-01-17T00:49:27.131Z,5.20
2023-01-17T00:50:48.969Z,5.05
2023-01-17T00:52:09.035Z,5.14
2023-01-17T00:53:29.467Z,5.04
2023-01-17T00:54:49.793Z,5.17
2023-01-17T00:56:10.134Z,5.19
2023-01-17T00:57:30.442Z,5.37
2023-01-17T00:58:50.836Z,5.64
2023-01-17T01:00:11.151Z,5.60
2023-01-17T01:01:31.535Z,5.61
2023-01-17T01:02:52.134Z,5.73
2023-01-17T01:04:11.920Z,5.60
2023-01-17T01:05:33.386Z,5.69
2023-01-17T01:06:55.021Z,5.70
2023-01-17T01:08:15.794Z,5.66
2023-01-17T01:09:36.069Z,5.46
2023-01-17T01:10:56.246Z,5.37
2023-01-17T01:12:16.067Z,5.41
2023-01-17T01:13:36.353Z,5.42
2023-01-17T01:14:56.185Z,5.26
2023-01-17T01:16:18.782Z,5.03
2023-01-17T01:17:38.957Z,4.92
2023-01-17T01:18:59.051Z,5.05
2023-01-17T01:20:18.957Z,5.03
2023-01-17T01:21:39.072Z,5.08
2023-01-17T01:23:00.538Z,5.28
2023-01-17T01:24:20.244Z,5.02
2023-01-17T01:25:40.490Z,5.19
2023-01-17T01:27:00.772Z,5.17
2023-01-17T01:28:22.081Z,5.21
2023-01-17T01:29:42.335Z,5.29
2023-01-17T01:31:02.138Z,5.05
2023-01-17T01:32:22.517Z,4.98
2023-01-17T01:33:24.147Z,5.13
2023-01-17T01:34:28.720Z,5.02
2023-01-17T01:35:30.388Z,5.17
2023-01-17T01:36:32.939Z,5.11
2023-01-17T01:37:34.510Z,5.23
2023-01-17T01:38:38.858Z,5.35
2023-01-17T01:39:40.589Z,5.24
2023-01-17T01:40:51.161Z,5.35
2023-01-17T01:41:55.184Z,5.05
2023-01-17T01:43:00.191Z,5.14
2023-01-17T01:44:02.700Z,5.23
2023-01-17T01:45:17.002Z,5.20
2023-01-17T01:46:24.467Z,5.17
2023-01-17T01:47:30.411Z,4.92
2023-01-17T01:48:37.378Z,4.95
2023-01-17T01:49:39.029Z,4.99
2023-01-17T01:50:41.695Z,5.05
2023-01-17T01:51:46.566Z,4.92
2023-01-17T01:52:52.934Z,4.93
2023-01-17T01:54:04.633Z,4.97
2023-01-17T01:55:11.501Z,4.92
2023-01-17T01:56:15.860Z,4.90
2023-01-17T01:57:24.211Z,4.82
2023-01-17T01:58:33.437Z,4.80
2023-01-17T01:59:39.920Z,4.80
2023-01-17T02:00:42.934Z,4.79
2023-01-17T02:01:44.716Z,4.88
2023-01-17T02:02:50.416Z,4.82
2023-01-17T02:03:53.546Z,4.60
2023-01-17T02:04:55.329Z,4.66
2023-01-17T02:06:05.609Z,4.73
2023-01-17T02:07:12.396Z,4.77
2023-01-17T02:08:17.673Z,4.79
2023-01-17T02:09:20.901Z,4.85
2023-01-17T02:10:24.089Z,4.77
2023-01-17T02:11:26.279Z,4.76
2023-01-17T02:12:29.357Z,4.80
2023-01-17T02:13:31.411Z,4.71
2023-01-17T02:14:35.892Z,4.73
2023-01-17T02:15:45.706Z,4.61
2023-01-17T02:17:03.257Z,4.70
2023-01-17T02:18:16.186Z,4.62
2023-01-17T02:19:48.068Z,4.58
2023-01-17T02:20:58.896Z,4.60
2023-01-17T02:22:06.219Z,4.71
2023-01-17T02:23:38.178Z,4.67
2023-01-17T02:25:03.321Z,4.67
2023-01-17T02:26:31.024Z,4.68
2023-01-17T02:27:54.936Z,4.63
2023-01-17T02:29:13.940Z,4.45
2023-01-17T02:30:36.576Z,4.70
2023-01-17T02:31:45.961Z,4.64
2023-01-17T02:32:59.621Z,4.63
2023-01-17T02:34:10.750Z,4.67
2023-01-17T02:35:20.313Z,4.66
2023-01-17T02:36:26.988Z,4.73
2023-01-17T02:37:34.946Z,4.84
2023-01-17T02:38:46.391Z,4.78
2023-01-17T02:39:54.242Z,4.84
2023-01-17T02:41:03.692Z,4.92
2023-01-17T02:42:10.653Z,4.91
2023-01-17T02:43:16.464Z,4.69
2023-01-17T02:44:20.116Z,4.79
2023-01-17T02:45:23.134Z,4.78
2023-01-17T02:46:26.076Z,4.86
2023-01-17T02:47:30.435Z,4.90
2023-01-17T02:48:36.193Z,5.00
2023-01-17T02:49:39.137Z,4.82
2023-01-17T02:51:00.022Z,4.91
2023-01-17T02:52:16.690Z,4.79
2023-01-17T02:53:31.939Z,4.98
2023-01-17T02:54:55.385Z,5.00
2023-01-17T02:56:03.436Z,4.88
2023-01-17T02:57:19.722Z,5.11
2023-01-17T02:58:42.974Z,5.08
2023-01-17T02:59:57.243Z,5.15
2023-01-17T03:01:10.443Z,4.92
2023-01-17T03:02:22.809Z,4.95
2023-01-17T03:03:30.928Z,4.97
2023-01-17T03:04:37.698Z,4.94
2023-01-17T03:05:45.458Z,4.93
2023-01-17T03:06:52.067Z,4.92
2023-01-17T03:07:56.148Z,4.88
2023-01-17T03:09:00.755Z,4.89
2023-01-17T03:10:08.237Z,5.00
2023-01-17T03:11:10.916Z,4.99
2023-01-17T03:12:14.431Z,5.00
2023-01-17T03:13:16.192Z,4.92
2023-01-17T03:14:19.087Z,4.80
2023-01-17T03:15:20.891Z,4.78
2023-01-17T03:16:26.031Z,4.76
2023-01-17T03:17:32.708Z,4.76
2023-01-17T03:18:35.413Z,4.76
2023-01-17T03:19:36.961Z,4.62
2023-01-17T03:20:39.508Z,4.73
2023-01-17T03:21:43.347Z,4.65
2023-01-17T03:22:45.888Z,4.77
2023-01-17T03:23:48.520Z,4.54
2023-01-17T03:24:50.342Z,4.71
2023-01-17T03:25:55.012Z,4.76
2023-01-17T03:26:56.557Z,4.93
2023-01-17T03:27:59.113Z,4.90
2023-01-17T03:29:02.917Z,4.98
2023-01-17T03:30:06.429Z,5.03
2023-01-17T03:31:08.133Z,5.00
2023-01-17T03:32:10.725Z,4.99
2023-01-17T03:33:16.109Z,4.85
2023-01-17T03:34:18.668Z,4.78
2023-01-17T03:35:20.244Z,4.87
2023-01-17T03:36:22.782Z,4.85
2023-01-17T03:37:24.494Z,4.95
2023-01-17T03:38:27.765Z,5.00
2023-01-17T03:39:29.291Z,5.09
2023-01-17T03:40:31.856Z,5.09
2023-01-17T03:41:33.363Z,4.94
2023-01-17T03:42:35.883Z,4.91
2023-01-17T03:43:37.425Z,4.89
2023-01-17T03:44:40.045Z,4.91
2023-01-17T03:45:41.669Z,4.89
2023-01-17T03:46:44.481Z,5.06
2023-01-17T03:47:46.019Z,4.94
2023-01-17T03:48:50.444Z,4.88
2023-01-17T03:49:52.398Z,4.80
2023-01-17T03:50:54.837Z,4.78
2023-01-17T03:51:56.376Z,4.94
2023-01-17T03:52:58.857Z,5.03
2023-01-17T03:54:00.673Z,5.02
2023-01-17T03:55:03.866Z,5.02
2023-01-17T03:56:06.157Z,5.25
2023-01-17T03:57:09.518Z,5.28
2023-01-17T03:58:11.045Z,4.93
2023-01-17T03:59:13.550Z,4.91
2023-01-17T04:00:15.713Z,4.81
2023-01-17T04:01:19.005Z,4.87
2023-01-17T04:02:20.656Z,4.83
2023-01-17T04:03:23.179Z,4.92
2023-01-17T04:04:26.043Z,4.79
2023-01-17T04:05:28.689Z,4.76
2023-01-17T04:06:30.261Z,4.72
2023-01-17T04:07:32.748Z,4.81
2023-01-17T04:08:34.311Z,4.83
2023-01-17T04:09:36.877Z,4.86
2023-01-17T04:10:38.471Z,4.65
2023-01-17T04:11:41.092Z,4.80
2023-01-17T04:12:42.864Z,4.69
2023-01-17T04:13:45.411Z,4.74
2023-01-17T04:14:48.160Z,4.84
2023-01-17T04:15:54.328Z,4.83
2023-01-17T04:16:56.437Z,4.84
2023-01-17T04:17:59.139Z,5.01
2023-01-17T04:19:00.754Z,5.20
2023-01-17T04:20:07.936Z,5.11
2023-01-17T04:21:09.555Z,5.07
2023-01-17T04:22:12.092Z,5.09
2023-01-17T04:23:13.679Z,5.07
2023-01-17T04:24:17.874Z,5.04
2023-01-17T04:25:20.067Z,5.12
2023-01-17T04:26:22.733Z,5.10
2023-01-17T04:27:24.296Z,4.92
2023-01-17T04:28:26.867Z,4.92
2023-01-17T04:29:28.412Z,4.87
2023-01-17T04:30:31.542Z,4.92
2023-01-17T04:31:33.252Z,4.91
2023-01-17T04:32:35.791Z,5.23
2023-01-17T04:33:37.370Z,5.30
2023-01-17T04:34:39.879Z,5.19
2023-01-17T04:35:42.798Z,5.19
2023-01-17T04:36:45.384Z,5.28
2023-01-17T04:37:47.694Z,5.16
2023-01-17T04:38:50.244Z,5.13
2023-01-17T04:39:51.766Z,5.26
2023-01-17T04:40:54.657Z,5.19
2023-01-17T04:41:56.240Z,5.19
2023-01-17T04:42:59.503Z,5.28
2023-01-17T04:44:01.907Z,5.15
2023-01-17T04:45:05.449Z,4.97
2023-01-17T04:46:10.059Z,5.01
2023-01-17T04:47:12.780Z,5.15
2023-01-17T04:48:14.324Z,5.21
2023-01-17T04:49:16.852Z,5.36
2023-01-17T04:50:18.816Z,5.04
2023-01-17T04:51:23.756Z,5.12
2023-01-17T04:52:25.459Z,5.31
2023-01-17T04:53:28.428Z,5.24
2023-01-17T04:54:29.974Z,5.08
2023-01-17T04:55:32.970Z,5.05
2023-01-17T04:56:34.495Z,4.95
2023-01-17T04:57:37.011Z,4.64
2023-01-17T04:58:38.583Z,4.95
2023-01-17T04:59:41.169Z,5.06
2023-01-17T05:00:42.693Z,5.13
2023-01-17T05:01:45.349Z,4.94
2023-01-17T05:02:46.906Z,4.76
2023-01-17T05:03:49.463Z,4.63
2023-01-17T05:04:51.010Z,4.69
2023-01-17T05:05:53.548Z,4.60
2023-01-17T05:06:56.388Z,4.50
2023-01-17T05:07:59.257Z,4.57
2023-01-17T05:09:02.771Z,4.72
2023-01-17T05:10:06.050Z,4.91
2023-01-17T05:11:07.741Z,4.93
2023-01-17T05:12:10.651Z,5.12
2023-01-17T05:13:12.240Z,5.03
2023-01-17T05:14:14.759Z,4.90
2023-01-17T05:15:16.730Z,4.89
2023-01-17T05:16:20.190Z,4.82
2023-01-17T05:17:21.766Z,4.80
2023-01-17T05:18:24.754Z,4.98
2023-01-17T05:19:27.033Z,5.10
2023-01-17T05:20:29.544Z,5.09
2023-01-17T05:21:36.359Z,5.03
2023-01-17T05:22:39.287Z,4.97
2023-01-17T05:23:42.663Z,5.01
2023-01-17T05:24:45.783Z,5.00
2023-01-17T05:25:48.447Z,5.13
2023-01-17T05:26:54.724Z,5.11
2023-01-17T05:27:59.921Z,5.03
2023-01-17T05:29:01.455Z,4.92
2023-01-17T05:30:04.253Z,4.95
2023-01-17T05:31:07.481Z,4.92
2023-01-17T05:32:09.251Z,4.99
2023-01-17T05:33:11.776Z,4.70
2023-01-17T05:34:13.335Z,4.81
2023-01-17T05:35:15.930Z,4.85
2023-01-17T05:36:17.917Z,4.69
2023-01-17T05:37:21.979Z,4.99
2023-01-17T05:38:24.925Z,5.00
2023-01-17T05:39:27.558Z,4.73
2023-01-17T05:40:31.356Z,4.59
2023-01-17T05:41:33.810Z,4.57
2023-01-17T05:42:35.451Z,4.56
2023-01-17T05:43:37.905Z,4.71
2023-01-17T05:44:40.622Z,4.84
2023-01-17T05:45:43.469Z,4.84
2023-01-17T05:46:45.073Z,4.59
2023-01-17T05:47:49.069Z,4.74
2023-01-17T05:48:51.537Z,4.65
2023-01-17T05:49:53.095Z,4.42
2023-01-17T05:50:55.691Z,4.43
2023-01-17T05:51:57.972Z,4.44
2023-01-17T05:53:03.030Z,4.58
2023-01-17T05:54:06.905Z,4.43
2023-01-17T05:55:10.335Z,4.54
2023-01-17T05:56:12.914Z,4.51
2023-01-17T05:57:16.712Z,4.57
2023-01-17T05:58:21.424Z,4.41
2023-01-17T05:59:36.176Z,4.48
2023-01-17T06:00:39.776Z,4.50
2023-01-17T06:01:43.968Z,4.61
2023-01-17T06:02:47.015Z,4.54
2023-01-17T06:03:48.764Z,4.54
2023-01-17T06:04:51.328Z,4.34
2023-01-17T06:05:53.889Z,4.40
2023-01-17T06:06:55.697Z,4.38
2023-01-17T06:07:58.535Z,4.29
2023-01-17T06:09:00.105Z,4.24
2023-01-17T06:10:04.119Z,4.32
2023-01-17T06:11:06.933Z,4.30
2023-01-17T06:12:08.484Z,4.40
2023-01-17T06:13:14.241Z,4.46
2023-01-17T06:14:15.774Z,4.48
2023-01-17T06:15:19.575Z,4.35
2023-01-17T06:16:21.213Z,4.52
2023-01-17T06:17:23.733Z,4.34
2023-01-17T06:18:25.333Z,4.30
2023-01-17T06:19:27.818Z,4.38
2023-01-17T06:20:29.392Z,4.29
2023-01-17T06:21:31.923Z,4.30
2023-01-17T06:22:33.659Z,4.18
2023-01-17T06:23:36.202Z,4.22
2023-01-17T06:24:37.847Z,4.27
2023-01-17T06:25:44.437Z,4.39
2023-01-17T06:26:45.999Z,4.33
2023-01-17T06:27:48.541Z,4.31
2023-01-17T06:28:50.066Z,4.37
2023-01-17T06:29:52.938Z,4.42
2023-01-17T06:30:55.601Z,4.32
2023-01-17T06:31:57.303Z,4.43
2023-01-17T06:32:59.839Z,4.41
2023-01-17T06:34:02.139Z,4.37
2023-01-17T06:35:04.949Z,4.46
2023-01-17T06:36:07.221Z,4.41
2023-01-17T06:37:11.293Z,4.39
2023-01-17T06:38:13.855Z,4.43
2023-01-17T06:39:15.441Z,4.38
2023-01-17T06:40:18.547Z,4.41
2023-01-17T06:41:23.200Z,4.33
2023-01-17T06:42:24.778Z,4.28
2023-01-17T06:43:28.877Z,4.34
2023-01-17T06:44:30.454Z,4.39
2023-01-17T06:45:35.392Z,4.38
2023-01-17T06:46:37.177Z,4.20
2023-01-17T06:47:40.265Z,4.27
2023-01-17T06:48:46.267Z,4.25
2023-01-17T06:49:47.828Z,4.30
2023-01-17T06:50:50.875Z,4.33
2023-01-17T06:51:52.455Z,4.32
2023-01-17T06:52:56.731Z,4.21
2023-01-17T06:53:58.316Z,4.16
2023-01-17T06:55:01.076Z,4.22
2023-01-17T06:56:03.654Z,4.12
2023-01-17T06:57:06.486Z,4.13
2023-01-17T06:58:09.769Z,4.14
2023-01-17T06:59:11.280Z,4.11
2023-01-17T07:00:14.962Z,4.12
2023-01-17T07:01:17.142Z,4.14
2023-01-17T07:02:19.791Z,4.13
2023-01-17T07:03:24.409Z,4.16
2023-01-17T07:04:27.078Z,4.28
2023-01-17T07:05:29.158Z,4.27
2023-01-17T07:06:31.942Z,4.08
2023-01-17T07:07:33.803Z,4.00
2023-01-17T07:08:37.443Z,4.02
2023-01-17T07:09:40.053Z,4.00
2023-01-17T07:10:41.639Z,3.87
2023-01-17T07:11:45.321Z,3.91
2023-01-17T07:12:48.189Z,3.97
2023-01-17T07:13:50.912Z,3.91
2023-01-17T07:14:52.463Z,3.82
2023-01-17T07:15:55.071Z,3.93
2023-01-17T07:16:58.276Z,3.88
2023-01-17T07:18:01.191Z,3.91
2023-01-17T07:19:03.879Z,3.75
2023-01-17T07:20:07.733Z,3.97
2023-01-17T07:21:13.946Z,3.93
2023-01-17T07:22:15.496Z,3.97
2023-01-17T07:23:18.410Z,3.86
2023-01-17T07:24:20.760Z,3.84
2023-01-17T07:25:23.343Z,3.96
2023-01-17T07:26:24.948Z,3.89
2023-01-17T07:27:30.448Z,3.78
2023-01-17T07:28:34.071Z,3.76
2023-01-17T07:29:36.845Z,3.73
2023-01-17T07:30:38.464Z,3.82
2023-01-17T07:31:41.061Z,3.83
2023-01-17T07:32:42.734Z,3.92
2023-01-17T07:33:45.341Z,3.90
2023-01-17T07:34:46.886Z,3.80
2023-01-17T07:35:49.513Z,3.92
2023-01-17T07:36:54.401Z,3.83
2023-01-17T07:37:56.927Z,3.96
2023-01-17T07:38:58.578Z,4.05
2023-01-17T07:40:02.522Z,3.81
2023-01-17T07:41:05.497Z,4.02
2023-01-17T07:42:07.190Z,3.92
2023-01-17T07:43:14.044Z,3.82
2023-01-17T07:44:16.950Z,3.81
2023-01-17T07:45:21.323Z,3.89
2023-01-17T07:46:23.301Z,3.92
2023-01-17T07:47:25.869Z,3.64
2023-01-17T07:48:28.426Z,3.61
2023-01-17T07:49:29.979Z,3.59
2023-01-17T07:50:32.494Z,3.59
2023-01-17T07:51:34.091Z,3.59
2023-01-17T07:52:36.606Z,3.63
2023-01-17T07:53:39.092Z,3.76
2023-01-17T07:54:42.198Z,3.53
2023-01-17T07:55:44.835Z,3.55
2023-01-17T07:56:47.173Z,3.58
2023-01-17T07:57:51.295Z,3.68
2023-01-17T07:58:52.850Z,3.76
2023-01-17T07:59:56.713Z,3.83
2023-01-17T08:01:02.124Z,3.86
2023-01-17T08:02:04.698Z,3.93
2023-01-17T08:03:06.434Z,3.98
2023-01-17T08:04:09.352Z,4.08
2023-01-17T08:05:12.127Z,4.23
2023-01-17T08:06:19.712Z,4.17
2023-01-17T08:07:22.321Z,4.14
2023-01-17T08:08:24.325Z,3.82
2023-01-17T08:09:27.035Z,3.79
2023-01-17T08:10:29.582Z,4.01
2023-01-17T08:11:32.249Z,3.97
2023-01-17T08:12:35.929Z,3.93
2023-01-17T08:13:38.465Z,4.13
2023-01-17T08:14:40.042Z,4.16
2023-01-17T08:15:44.149Z,4.25
2023-01-17T08:16:46.720Z,4.12
2023-01-17T08:17:53.119Z,4.08
2023-01-17T08:18:56.104Z,3.96
2023-01-17T08:19:57.692Z,4.04
2023-01-17T08:21:00.152Z,3.88
2023-01-17T08:22:02.748Z,3.98
2023-01-17T08:23:05.258Z,4.10
2023-01-17T08:24:12.402Z,4.02
2023-01-17T08:25:13.974Z,3.80
2023-01-17T08:26:21.379Z,3.79
2023-01-17T08:27:24.128Z,3.74
2023-01-17T08:28:25.707Z,3.77
2023-01-17T08:29:28.308Z,3.77
2023-01-17T08:30:30.946Z,3.80
2023-01-17T08:31:36.691Z,3.81
2023-01-17T08:32:40.692Z,3.64
2023-01-17T08:33:43.241Z,3.69
2023-01-17T08:34:45.784Z,3.75
2023-01-17T08:35:52.017Z,3.91
2023-01-17T08:36:55.020Z,3.73
2023-01-17T08:37:59.959Z,3.70
2023-01-17T08:39:02.483Z,3.81
2023-01-17T08:40:05.686Z,3.84
2023-01-17T08:41:08.195Z,3.84
2023-01-17T08:42:10.687Z,3.98
2023-01-17T08:43:13.309Z,3.96
2023-01-17T08:44:15.851Z,3.89
2023-01-17T08:45:18.798Z,3.72
2023-01-17T08:46:21.422Z,3.78
2023-01-17T08:47:25.237Z,3.83
2023-01-17T08:48:26.784Z,3.94
2023-01-17T08:49:29.284Z,4.10
2023-01-17T08:50:30.825Z,3.99
2023-01-17T08:51:33.540Z,4.21
2023-01-17T08:52:36.032Z,4.14
2023-01-17T08:53:38.690Z,4.22
2023-01-17T08:54:40.244Z,4.24
2023-01-17T08:55:43.089Z,4.25
2023-01-17T08:56:46.901Z,4.32
2023-01-17T08:57:49.443Z,4.27
2023-01-17T08:58:50.962Z,4.13
2023-01-17T08:59:53.570Z,3.99
2023-01-17T09:00:56.417Z,4.12
2023-01-17T09:02:01.255Z,3.99
2023-01-17T09:03:05.361Z,4.08
2023-01-17T09:04:08.203Z,4.34
2023-01-17T09:05:11.777Z,4.33
2023-01-17T09:06:15.634Z,4.29
2023-01-17T09:07:20.094Z,4.33
2023-01-17T09:08:22.774Z,4.25
2023-01-17T09:09:24.492Z,4.35
2023-01-17T09:10:27.149Z,4.22
2023-01-17T09:11:29.727Z,4.13
2023-01-17T09:12:32.532Z,4.13
2023-01-17T09:13:35.410Z,4.16
2023-01-17T09:14:38.251Z,4.17
2023-01-17T09:15:40.856Z,4.28
2023-01-17T09:16:43.449Z,4.53
2023-01-17T09:17:45.004Z,4.84
2023-01-17T09:18:48.877Z,4.61
2023-01-17T09:19:52.554Z,4.91
2023-01-17T09:20:55.432Z,4.77
2023-01-17T09:21:58.238Z,4.85
2023-01-17T09:23:03.231Z,4.89
2023-01-17T09:24:06.131Z,5.10
2023-01-17T09:25:08.370Z,5.25
2023-01-17T09:26:20.880Z,5.14
2023-01-17T09:27:22.672Z,5.03
2023-01-17T09:28:26.062Z,4.90
2023-01-17T09:29:28.642Z,5.05
2023-01-17T09:30:31.227Z,5.04
2023-01-17T09:31:32.902Z,4.99
2023-01-17T09:32:35.411Z,4.94
2023-01-17T09:33:37.057Z,4.85
2023-01-17T09:34:41.026Z,5.03
2023-01-17T09:35:42.607Z,5.22
2023-01-17T09:36:45.751Z,5.28
2023-01-17T09:37:49.110Z,5.30
2023-01-17T09:38:57.363Z,5.14
2023-01-17T09:39:59.911Z,5.15
2023-01-17T09:41:02.748Z,5.21
2023-01-17T09:42:19.249Z,5.30
2023-01-17T09:43:25.545Z,4.99
2023-01-17T09:44:30.662Z,5.13
2023-01-17T09:45:36.247Z,5.01
2023-01-17T09:46:42.177Z,4.98
2023-01-17T09:47:47.198Z,5.15
2023-01-17T09:48:58.594Z,5.16
2023-01-17T09:50:17.083Z,5.03
2023-01-17T09:51:24.134Z,4.93
2023-01-17T09:52:30.813Z,4.92
2023-01-17T09:53:38.389Z,5.05
2023-01-17T09:54:43.299Z,5.10
2023-01-17T09:55:53.201Z,5.13
2023-01-17T09:57:04.012Z,4.87
2023-01-17T09:58:09.522Z,4.89
2023-01-17T09:59:32.689Z,4.65
2023-01-17T10:00:48.118Z,4.59
2023-01-17T10:01:58.452Z,4.56
2023-01-17T10:03:26.992Z,4.54
2023-01-17T10:04:48.979Z,4.57
2023-01-17T10:06:02.596Z,4.48
2023-01-17T10:07:18.689Z,4.46
2023-01-17T10:08:39.575Z,4.47
2023-01-17T10:09:56.329Z,4.57
2023-01-17T10:11:17.112Z,4.63
2023-01-17T10:12:25.892Z,4.69
2023-01-17T10:13:40.210Z,4.73
2023-01-17T10:14:56.511Z,4.55
2023-01-17T10:16:13.463Z,4.54
2023-01-17T10:17:25.029Z,4.63
2023-01-17T10:18:44.466Z,4.53
2023-01-17T10:20:00.490Z,4.59
2023-01-17T10:21:11.933Z,4.49
2023-01-17T10:22:34.469Z,4.50
2023-01-17T10:23:52.763Z,4.62
2023-01-17T10:25:14.061Z,4.68
2023-01-17T10:26:20.414Z,4.83
2023-01-17T10:27:25.329Z,4.78
2023-01-17T10:28:34.510Z,4.69
2023-01-17T10:29:37.800Z,4.71
2023-01-17T10:30:46.151Z,4.76
2023-01-17T10:31:54.221Z,4.64
2023-01-17T10:32:59.387Z,4.69
2023-01-17T10:34:07.867Z,4.74
2023-01-17T10:35:21.280Z,4.79
2023-01-17T10:36:27.346Z,4.86
2023-01-17T10:37:40.341Z,5.14
2023-01-17T10:38:48.230Z,5.88
2023-01-17T10:39:53.493Z,5.56
2023-01-17T10:41:00.579Z,5.71
2023-01-17T10:42:08.472Z,5.69
2023-01-17T10:43:18.647Z,5.64
2023-01-17T10:44:26.189Z,5.76
2023-01-17T10:45:29.995Z,6.54
2023-01-17T10:46:38.954Z,7.44
2023-01-17T10:47:47.347Z,7.02
2023-01-17T10:48:53.495Z,6.91
2023-01-17T10:49:59.435Z,6.45
2023-01-17T10:51:10.775Z,6.44
2023-01-17T10:52:29.368Z,6.35
2023-01-17T10:53:43.093Z,6.55
2023-01-17T10:54:54.780Z,7.21
2023-01-17T10:55:58.022Z,7.66
2023-01-17T10:57:00.588Z,7.52
2023-01-17T10:58:03.154Z,7.48
2023-01-17T10:59:18.770Z,7.38
2023-01-17T11:00:31.831Z,7.31
2023-01-17T11:01:34.678Z,7.39
2023-01-17T11:02:50.578Z,7.45
2023-01-17T11:03:54.617Z,7.10
2023-01-17T11:04:59.034Z,7.05
2023-01-17T11:06:16.600Z,6.90
2023-01-17T11:07:21.297Z,6.93
2023-01-17T11:08:23.840Z,6.92
2023-01-17T11:09:39.019Z,7.34
2023-01-17T11:10:44.768Z,7.14
2023-01-17T11:11:49.833Z,7.41
2023-01-17T11:12:52.913Z,7.51
2023-01-17T11:13:55.356Z,7.71
2023-01-17T11:15:03.998Z,7.60
2023-01-17T11:16:09.992Z,7.44
2023-01-17T11:17:13.533Z,7.42
2023-01-17T11:18:18.216Z,7.01
2023-01-17T11:19:28.711Z,7.08
2023-01-17T11:20:38.431Z,7.28
2023-01-17T11:21:50.191Z,7.05
2023-01-17T11:23:07.864Z,7.14
2023-01-17T11:24:13.322Z,7.14
2023-01-17T11:25:22.358Z,7.23
2023-01-17T11:26:28.396Z,7.40
2023-01-17T11:27:33.568Z,7.58
2023-01-17T11:28:36.370Z,7.39
2023-01-17T11:29:40.374Z,7.00
2023-01-17T11:30:51.638Z,7.07
2023-01-17T11:31:56.203Z,6.83
2023-01-17T11:32:59.100Z,6.82
2023-01-17T11:34:15.887Z,7.53
2023-01-17T11:35:21.258Z,8.08
2023-01-17T11:36:27.334Z,8.90
2023-01-17T11:37:29.289Z,9.45
2023-01-17T11:38:33.152Z,9.96
2023-01-17T11:39:35.823Z,10.20
2023-01-17T11:40:40.443Z,10.57
2023-01-17T11:41:43.307Z,11.49
2023-01-17T11:42:46.181Z,11.94
2023-01-17T11:43:52.464Z,12.95
2023-01-17T11:44:55.032Z,13.18
2023-01-17T11:46:17.748Z,13.77
2023-01-17T11:47:20.553Z,13.11
2023-01-17T11:48:23.899Z,12.60
2023-01-17T11:49:27.129Z,13.16
2023-01-17T11:50:29.445Z,12.65
2023-01-17T11:51:34.316Z,12.15
2023-01-17T11:52:38.998Z,12.77
2023-01-17T11:53:48.141Z,13.12
2023-01-17T11:54:52.501Z,12.56
2023-01-17T11:56:02.479Z,12.12
2023-01-17T11:57:05.921Z,12.49
2023-01-17T11:58:14.259Z,12.34
2023-01-17T11:59:25.604Z,12.18
2023-01-17T12:00:34.015Z,12.17
2023-01-17T12:01:41.031Z,12.42
2023-01-17T12:03:22.307Z,12.80
2023-01-17T12:04:27.290Z,12.81
2023-01-17T12:05:41.910Z,13.00
2023-01-17T12:06:58.026Z,13.40
2023-01-17T12:08:11.462Z,13.28
2023-01-17T12:09:24.929Z,14.69
2023-01-17T12:10:34.553Z,15.97
2023-01-17T12:12:08.735Z,16.15
2023-01-17T12:13:36.986Z,15.80
2023-01-17T12:14:50.897Z,16.81
2023-01-17T12:16:22.592Z,16.86
2023-01-17T12:17:35.145Z,15.59
2023-01-17T12:18:45.211Z,15.82
2023-01-17T12:20:01.544Z,15.67
2023-01-17T12:21:16.405Z,15.63
2023-01-17T12:22:29.561Z,15.95
2023-01-17T12:23:45.779Z,15.81
2023-01-17T12:25:07.869Z,15.80
2023-01-17T12:26:23.895Z,14.83
2023-01-17T12:27:36.230Z,15.84
2023-01-17T12:29:14.164Z,15.79
2023-01-17T12:30:30.746Z,14.11
2023-01-17T12:31:37.674Z,13.88
2023-01-17T12:32:54.574Z,15.41
2023-01-17T12:34:01.165Z,14.69
2023-01-17T12:35:12.367Z,15.69
2023-01-17T12:36:33.039Z,15.54
2023-01-17T12:37:39.921Z,16.45
2023-01-17T12:38:42.973Z,16.43
2023-01-17T12:39:50.222Z,15.24
2023-01-17T12:41:00.049Z,15.34
2023-01-17T12:42:06.828Z,16.09
2023-01-17T12:43:18.321Z,16.55
2023-01-17T12:44:31.205Z,16.12
2023-01-17T12:45:39.270Z,15.27
2023-01-17T12:46:49.325Z,15.71
2023-01-17T12:47:59.722Z,16.48
2023-01-17T12:49:16.502Z,16.45
2023-01-17T12:50:24.939Z,16.60
2023-01-17T12:51:31.463Z,15.81
2023-01-17T12:52:45.664Z,13.95
2023-01-17T12:53:58.165Z,14.01
2023-01-17T12:55:05.846Z,14.59
2023-01-17T12:56:17.942Z,14.23
2023-01-17T12:57:23.237Z,13.46
2023-01-17T12:58:29.232Z,11.93
2023-01-17T12:59:37.751Z,11.57
2023-01-17T13:00:40.586Z,11.61
2023-01-17T13:01:44.211Z,10.57
2023-01-17T13:02:52.266Z,10.54
2023-01-17T13:04:04.718Z,10.69
2023-01-17T13:05:15.225Z,10.12
2023-01-17T13:06:25.950Z,9.80
2023-01-17T13:07:40.477Z,9.76
2023-01-17T13:08:49.659Z,8.77
2023-01-17T13:09:56.503Z,8.79
2023-01-17T13:11:06.188Z,8.66
2023-01-17T13:12:14.653Z,8.47
2023-01-17T13:13:22.315Z,8.45
2023-01-17T13:14:24.887Z,8.29
2023-01-17T13:15:32.331Z,8.10
2023-01-17T13:16:42.181Z,7.83
2023-01-17T13:17:48.591Z,7.99
2023-01-17T13:18:53.482Z,8.18
2023-01-17T13:20:00.983Z,8.26
2023-01-17T13:21:15.539Z,8.11
2023-01-17T13:22:21.776Z,7.94
2023-01-17T13:23:29.291Z,7.68
2023-01-17T13:24:43.363Z,7.64
2023-01-17T13:25:49.383Z,7.62
2023-01-17T13:27:07.818Z,7.51
2023-01-17T13:28:18.709Z,7.72
2023-01-17T13:29:25.139Z,7.70
2023-01-17T13:30:45.900Z,7.83
2023-01-17T13:31:53.053Z,7.23
2023-01-17T13:33:24.776Z,7.10
2023-01-17T13:34:41.133Z,6.63
2023-01-17T13:35:54.699Z,6.74
2023-01-17T13:37:10.977Z,7.14
2023-01-17T13:38:30.842Z,7.15
2023-01-17T13:39:50.409Z,6.74
2023-01-17T13:40:55.740Z,6.97
2023-01-17T13:42:11.311Z,7.13
2023-01-17T13:43:19.552Z,7.17
2023-01-17T13:44:25.937Z,7.39
2023-01-17T13:45:30.813Z,7.01
2023-01-17T13:46:57.323Z,7.32
2023-01-17T13:48:29.276Z,7.04
2023-01-17T13:49:44.066Z,6.62
2023-01-17T13:50:50.560Z,6.65
2023-01-17T13:52:11.943Z,6.81
2023-01-17T13:54:00.019Z,6.36
2023-01-17T13:55:04.050Z,6.53
2023-01-17T13:56:13.431Z,6.53
2023-01-17T13:57:43.758Z,6.66
2023-01-17T13:59:06.987Z,6.79
2023-01-17T14:00:54.856Z,6.46
2023-01-17T14:01:58.194Z,6.34
2023-01-17T14:02:59.834Z,6.45
2023-01-17T14:04:05.238Z,6.04
2023-01-17T14:05:11.244Z,5.71
2023-01-17T14:06:30.464Z,5.52
2023-01-17T14:07:35.491Z,5.68
2023-01-17T14:08:39.603Z,5.78
2023-01-17T14:09:43.603Z,6.03
2023-01-17T14:10:47.598Z,6.09
2023-01-17T14:12:00.111Z,5.89
2023-01-17T14:13:04.845Z,6.07
2023-01-17T14:14:40.249Z,6.26
2023-01-17T14:15:51.144Z,5.98
2023-01-17T14:16:52.566Z,5.95
2023-01-17T14:17:58.428Z,5.61
2023-01-17T14:19:01.251Z,5.82
2023-01-17T14:20:29.397Z,5.91
2023-01-17T14:21:32.872Z,5.83
2023-01-17T14:22:37.541Z,5.91
2023-01-17T14:23:52.645Z,6.01
2023-01-17T14:25:00.497Z,6.01
2023-01-17T14:26:22.946Z,5.66
2023-01-17T14:27:28.063Z,5.64
2023-01-17T14:28:31.972Z,5.68
2023-01-17T14:29:54.667Z,5.57
2023-01-17T14:31:00.912Z,5.78
2023-01-17T14:32:05.825Z,5.67
2023-01-17T14:33:17.698Z,5.43
2023-01-17T14:34:23.009Z,5.22
2023-01-17T14:35:32.158Z,5.49
2023-01-17T14:36:34.784Z,5.47
2023-01-17T14:37:45.642Z,5.74
2023-01-17T14:38:47.108Z,5.70
2023-01-17T14:39:51.213Z,5.83
2023-01-17T14:40:56.579Z,5.82
2023-01-17T14:41:59.346Z,6.03
2023-01-17T14:43:05.503Z,6.23
2023-01-17T14:44:08.419Z,6.22
2023-01-17T14:45:18.865Z,6.23
2023-01-17T14:46:27.303Z,6.26
2023-01-17T14:47:31.854Z,5.96
2023-01-17T14:48:35.216Z,6.11
2023-01-17T14:49:36.786Z,5.89
2023-01-17T14:50:41.205Z,5.71
2023-01-17T14:51:43.694Z,5.81